Terminal Aerodrome Forecast
Issued by NWS Sioux Falls, SD

Home | Current Version | Previous Version | Graphics & Text | Print | Product List | Glossary Off
Versions: 1 2 3 4 5 6 7 8 9 10 11 12 13 14

000
FTUS43 KFSD 192320
TAFHON
TAF
KHON 192320Z 2000/2024 07012KT P6SM OVC070
     FM200700 03007KT P6SM OVC060
     FM200900 02009KT P6SM -SHRA OVC030
     FM201200 01008KT P6SM -SHRA OVC015
     FM201700 01012KT 3SM -SHRA BR OVC010=

USA.gov is the U.S. government's official web portal to all federal, state and local government web resources and services.